Time;durP1;ratioP1;P1;durP2;ratioP2;P2;SDS_P1;SDS_P2;PMS_P1;PMS_P2;Temp;Humidity;BMP_temperature;BMP_pressure;BME280_temperature;BME280_humidity;BME280_pressure;Samples;Min_cycle;Max_cycle;Signal;HPM_P1;HPM_P2
2022/12/28 00:00:50;;;;;;;6.47;2.65;;;;;;;;;;5054950;28;20194;-67
2022/12/28 00:03:19;;;;;;;5.22;2.60;;;;;;;;;;5055242;28;20286;-67
2022/12/28 00:05:46;;;;;;;4.10;2.38;;;;;;;;;;5054835;28;20679;-67
2022/12/28 00:08:13;;;;;;;4.50;2.17;;;;;;;;;;5055135;28;20301;-67
2022/12/28 00:10:40;;;;;;;2.95;2.42;;;;;;;;;;5054692;28;20311;-67
2022/12/28 00:13:08;;;;;;;7.57;2.75;;;;;;;;;;5053912;28;20204;-67
2022/12/28 00:15:37;;;;;;;6.43;2.55;;;;;;;;;;5054960;28;20198;-67
2022/12/28 00:18:04;;;;;;;3.65;2.50;;;;;;;;;;5054856;28;20551;-67
2022/12/28 00:20:33;;;;;;;2.67;2.15;;;;;;;;;;5054636;28;20664;-67
2022/12/28 00:23:00;;;;;;;5.13;2.88;;;;;;;;;;5054788;28;20196;-67
2022/12/28 00:25:27;;;;;;;5.90;3.20;;;;;;;;;;5054903;28;20195;-67
2022/12/28 00:27:55;;;;;;;3.88;2.33;;;;;;;;;;5054371;28;20198;-67
2022/12/28 00:30:22;;;;;;;4.60;2.40;;;;;;;;;;5054768;28;20643;-67
2022/12/28 00:32:49;;;;;;;3.72;2.03;;;;;;;;;;5054300;28;20198;-67
2022/12/28 00:35:16;;;;;;;8.98;2.83;;;;;;;;;;5054624;28;20206;-67
2022/12/28 00:37:45;;;;;;;4.68;2.53;;;;;;;;;;5054763;28;20221;-67
2022/12/28 00:40:12;;;;;;;6.35;2.55;;;;;;;;;;5054614;28;20226;-67
2022/12/28 00:42:39;;;;;;;4.35;2.50;;;;;;;;;;5054427;28;20197;-67
2022/12/28 00:45:07;;;;;;;9.93;2.40;;;;;;;;;;5054739;28;20199;-67
2022/12/28 00:47:34;;;;;;;5.75;2.40;;;;;;;;;;5054283;28;20197;-67
2022/12/28 00:50:01;;;;;;;5.00;3.13;;;;;;;;;;5054347;28;20201;-67
2022/12/28 00:52:28;;;;;;;5.65;2.40;;;;;;;;;;5054207;28;20559;-67
2022/12/28 00:54:57;;;;;;;3.58;2.20;;;;;;;;;;5054254;28;20662;-67
2022/12/28 00:57:24;;;;;;;3.25;2.10;;;;;;;;;;5054188;28;20202;-66
2022/12/28 00:59:51;;;;;;;6.32;2.75;;;;;;;;;;5054094;28;20313;-66
2022/12/28 01:02:18;;;;;;;2.80;2.55;;;;;;;;;;5054037;28;20206;-67
2022/12/28 01:04:45;;;;;;;4.45;2.30;;;;;;;;;;5054056;28;20201;-67
2022/12/28 01:07:13;;;;;;;3.67;2.60;;;;;;;;;;5053941;28;20668;-67
2022/12/28 01:09:40;;;;;;;4.25;2.90;;;;;;;;;;5053954;28;20651;-67
2022/12/28 01:12:08;;;;;;;5.45;2.65;;;;;;;;;;5054127;28;20194;-67
2022/12/28 01:14:36;;;;;;;7.68;2.70;;;;;;;;;;5053950;28;20223;-67
2022/12/28 01:17:03;;;;;;;3.03;2.22;;;;;;;;;;5053788;28;20201;-67
2022/12/28 01:19:30;;;;;;;9.27;2.75;;;;;;;;;;5053430;28;20222;-67
2022/12/28 01:21:57;;;;;;;6.15;2.80;;;;;;;;;;5053382;28;20566;-67
2022/12/28 01:24:24;;;;;;;4.00;2.83;;;;;;;;;;5053174;28;20201;-66
2022/12/28 01:26:52;;;;;;;6.95;2.50;;;;;;;;;;5053332;28;20202;-67
2022/12/28 01:29:20;;;;;;;8.25;2.50;;;;;;;;;;5053738;28;20658;-66
2022/12/28 01:31:47;;;;;;;6.50;2.45;;;;;;;;;;5053359;28;20227;-67
2022/12/28 01:34:15;;;;;;;5.03;2.30;;;;;;;;;;5053543;28;20197;-66
2022/12/28 01:36:42;;;;;;;5.30;2.70;;;;;;;;;;5053821;28;20634;-67
2022/12/28 01:39:09;;;;;;;3.95;2.20;;;;;;;;;;5053410;28;20575;-67
2022/12/28 01:41:38;;;;;;;6.13;2.55;;;;;;;;;;5053538;28;20192;-67
2022/12/28 01:44:24;;;;;;;4.50;2.53;;;;;;;;;;5053543;28;20201;-67
2022/12/28 01:46:54;;;;;;;6.00;2.20;;;;;;;;;;5054292;28;20195;-67
2022/12/28 01:49:24;;;;;;;7.18;2.65;;;;;;;;;;5053471;28;20221;-66
2022/12/28 01:51:54;;;;;;;3.60;2.60;;;;;;;;;;5053670;28;20244;-67
2022/12/28 01:54:23;;;;;;;5.95;2.40;;;;;;;;;;5053296;28;20199;-67
2022/12/28 01:56:51;;;;;;;4.22;2.30;;;;;;;;;;5053294;28;20194;-67
2022/12/28 01:59:19;;;;;;;4.30;2.45;;;;;;;;;;5052907;28;20227;-67
2022/12/28 02:01:47;;;;;;;3.85;2.60;;;;;;;;;;5053462;28;20200;-67
2022/12/28 02:04:15;;;;;;;4.28;2.60;;;;;;;;;;5052880;28;20205;-66
2022/12/28 02:06:42;;;;;;;5.80;2.40;;;;;;;;;;5053360;28;20194;-66
2022/12/28 02:09:12;;;;;;;7.53;2.80;;;;;;;;;;5053148;28;20564;-66
2022/12/28 02:11:39;;;;;;;7.43;2.72;;;;;;;;;;5053458;28;20252;-66
2022/12/28 02:14:06;;;;;;;2.58;2.25;;;;;;;;;;5053230;28;20201;-67
2022/12/28 02:16:34;;;;;;;4.95;2.78;;;;;;;;;;5053162;28;20192;-67
2022/12/28 02:19:01;;;;;;;3.78;2.50;;;;;;;;;;5053222;28;20229;-67
2022/12/28 02:21:35;;;;;;;3.53;2.60;;;;;;;;;;5052855;28;20207;-67
2022/12/28 02:24:14;;;;;;;4.50;3.10;;;;;;;;;;5052845;28;20186;-67
2022/12/28 02:26:56;;;;;;;5.18;2.67;;;;;;;;;;5053165;28;20232;-67
2022/12/28 02:29:45;;;;;;;5.15;2.95;;;;;;;;;;5053012;28;20202;-67
2022/12/28 02:32:26;;;;;;;6.15;2.90;;;;;;;;;;5053356;28;20203;-67
2022/12/28 02:34:57;;;;;;;5.30;2.70;;;;;;;;;;5053194;28;20277;-67
2022/12/28 02:37:27;;;;;;;7.30;3.30;;;;;;;;;;5056967;28;20187;-67
2022/12/28 02:39:56;;;;;;;7.80;3.75;;;;;;;;;;5056493;28;20226;-67
2022/12/28 02:42:25;;;;;;;6.07;3.05;;;;;;;;;;5056451;28;20192;-67
2022/12/28 02:50:30;;;;;;;5.35;2.75;;;;;;;;;;5056519;28;20244;-67
2022/12/28 02:53:22;;;;;;;3.65;3.30;;;;;;;;;;5056384;28;20187;-67
2022/12/28 02:56:06;;;;;;;4.93;3.20;;;;;;;;;;4983019;28;20202;-67
2022/12/28 02:58:51;;;;;;;6.30;3.08;;;;;;;;;;5056469;28;20293;-67
2022/12/28 03:01:26;;;;;;;4.10;2.55;;;;;;;;;;5056112;28;20197;-66
2022/12/28 03:03:58;;;;;;;9.57;3.30;;;;;;;;;;5056009;28;20190;-67
2022/12/28 03:09:18;;;;;;;3.75;2.55;;;;;;;;;;5056201;28;20232;-67
2022/12/28 03:11:49;;;;;;;6.50;2.50;;;;;;;;;;5056857;28;20241;-67
2022/12/28 03:14:19;;;;;;;4.13;2.88;;;;;;;;;;5056611;28;20189;-67
2022/12/28 03:33:29;;;;;;;5.75;2.97;;;;;;;;;;5055848;28;20208;-67
2022/12/28 03:35:59;;;;;;;4.13;2.70;;;;;;;;;;5055470;28;20204;-67
2022/12/28 03:38:30;;;;;;;3.75;3.20;;;;;;;;;;5056238;28;20194;-67
2022/12/28 03:41:02;;;;;;;4.38;3.13;;;;;;;;;;5055784;28;20221;-67
2022/12/28 03:43:39;;;;;;;4.03;3.03;;;;;;;;;;5055735;28;20188;-67
2022/12/28 03:46:08;;;;;;;3.45;2.60;;;;;;;;;;5055201;28;20186;-67
2022/12/28 03:48:37;;;;;;;7.15;2.90;;;;;;;;;;5055276;28;20198;-67
2022/12/28 03:51:05;;;;;;;5.95;3.30;;;;;;;;;;5055461;28;20202;-66
2022/12/28 03:53:37;;;;;;;5.03;3.00;;;;;;;;;;5055462;28;20195;-67
2022/12/28 03:56:09;;;;;;;5.38;3.10;;;;;;;;;;5055430;28;20193;-66
2022/12/28 03:58:36;;;;;;;5.40;3.35;;;;;;;;;;5055067;28;20648;-66
2022/12/28 04:01:03;;;;;;;5.38;3.40;;;;;;;;;;5054970;28;20218;-66
2022/12/28 04:03:30;;;;;;;8.68;3.45;;;;;;;;;;5055296;28;20191;-66
2022/12/28 04:05:59;;;;;;;6.38;2.67;;;;;;;;;;5055180;28;20244;-66
2022/12/28 04:08:26;;;;;;;4.25;3.15;;;;;;;;;;5054921;28;20648;-66
2022/12/28 04:10:53;;;;;;;5.63;3.13;;;;;;;;;;5054744;28;20234;-67
2022/12/28 04:13:21;;;;;;;8.32;3.65;;;;;;;;;;5055127;28;20193;-67
2022/12/28 04:15:56;;;;;;;9.80;3.35;;;;;;;;;;5055117;28;20190;-67
2022/12/28 04:18:23;;;;;;;4.75;3.47;;;;;;;;;;5055195;28;20196;-67
2022/12/28 04:20:50;;;;;;;3.45;2.95;;;;;;;;;;5054993;28;20258;-67
2022/12/28 04:23:19;;;;;;;4.90;3.30;;;;;;;;;;5055521;28;20191;-67
2022/12/28 04:25:57;;;;;;;5.45;3.85;;;;;;;;;;5054494;28;20209;-66
2022/12/28 04:28:24;;;;;;;7.07;3.58;;;;;;;;;;5055198;28;20578;-66
2022/12/28 04:30:51;;;;;;;4.78;3.63;;;;;;;;;;5054661;28;20209;-66
2022/12/28 04:33:18;;;;;;;7.72;4.45;;;;;;;;;;5054701;28;20293;-66
2022/12/28 04:35:45;;;;;;;5.47;4.28;;;;;;;;;;5054508;28;20197;-67
2022/12/28 04:38:12;;;;;;;8.02;4.00;;;;;;;;;;5045831;28;20206;-67
2022/12/28 04:40:41;;;;;;;5.40;4.55;;;;;;;;;;5033468;28;20694;-67
2022/12/28 04:43:08;;;;;;;7.40;4.88;;;;;;;;;;5034547;28;20198;-67
2022/12/28 04:45:35;;;;;;;6.35;3.83;;;;;;;;;;5034431;28;20210;-66
2022/12/28 04:48:03;;;;;;;7.70;4.28;;;;;;;;;;5033876;28;20195;-67
2022/12/28 04:50:30;;;;;;;5.28;3.80;;;;;;;;;;5034281;28;20203;-67
2022/12/28 04:52:59;;;;;;;4.85;4.05;;;;;;;;;;5034052;28;20195;-67
2022/12/28 04:55:26;;;;;;;5.55;4.05;;;;;;;;;;5034252;28;20198;-67
2022/12/28 04:57:55;;;;;;;6.20;4.32;;;;;;;;;;5033649;28;20202;-68
2022/12/28 05:00:22;;;;;;;5.45;3.92;;;;;;;;;;5034100;28;20219;-67
2022/12/28 05:02:49;;;;;;;6.15;4.47;;;;;;;;;;5033906;28;20656;-68
2022/12/28 05:05:16;;;;;;;4.70;3.75;;;;;;;;;;5033756;28;20209;-68
2022/12/28 05:07:43;;;;;;;6.10;4.18;;;;;;;;;;5034066;28;20195;-68
2022/12/28 05:10:11;;;;;;;5.90;4.55;;;;;;;;;;5033831;28;20595;-68
2022/12/28 05:12:38;;;;;;;6.78;5.10;;;;;;;;;;5034034;28;20198;-68
2022/12/28 05:15:07;;;;;;;10.18;4.57;;;;;;;;;;5033585;28;20195;-68
2022/12/28 05:17:35;;;;;;;9.30;4.20;;;;;;;;;;5033608;28;20198;-68
2022/12/28 05:20:02;;;;;;;5.20;4.70;;;;;;;;;;5033715;28;20227;-68
2022/12/28 05:22:30;;;;;;;5.97;4.80;;;;;;;;;;5033878;28;20248;-68
2022/12/28 05:24:57;;;;;;;5.75;4.60;;;;;;;;;;5033974;28;20193;-68
2022/12/28 05:27:24;;;;;;;4.75;4.35;;;;;;;;;;5033822;28;20198;-68
2022/12/28 05:29:51;;;;;;;6.43;4.50;;;;;;;;;;5033400;28;20660;-68
2022/12/28 05:32:20;;;;;;;5.22;4.63;;;;;;;;;;5033702;28;20199;-68
2022/12/28 05:34:47;;;;;;;8.95;5.03;;;;;;;;;;5033729;28;20229;-68
2022/12/28 05:37:14;;;;;;;7.20;4.72;;;;;;;;;;5033612;28;20202;-68
2022/12/28 05:39:41;;;;;;;7.80;4.95;;;;;;;;;;5033581;28;20215;-69
2022/12/28 05:42:08;;;;;;;5.07;4.65;;;;;;;;;;5033486;28;20282;-68
2022/12/28 05:44:35;;;;;;;8.88;4.72;;;;;;;;;;5033307;28;20198;-68
2022/12/28 05:47:03;;;;;;;9.23;5.70;;;;;;;;;;5033113;28;20297;-68
2022/12/28 05:49:31;;;;;;;6.80;5.00;;;;;;;;;;5033480;28;20293;-68
2022/12/28 05:51:58;;;;;;;6.65;5.25;;;;;;;;;;5033011;28;20204;-68
2022/12/28 05:54:26;;;;;;;4.13;3.72;;;;;;;;;;5033150;28;20202;-68
2022/12/28 05:56:53;;;;;;;6.20;5.60;;;;;;;;;;5033326;28;20289;-68
2022/12/28 05:59:20;;;;;;;5.95;4.93;;;;;;;;;;5033383;28;20201;-68
2022/12/28 06:01:47;;;;;;;7.38;5.38;;;;;;;;;;5033120;28;20234;-68
2022/12/28 06:04:16;;;;;;;6.47;5.80;;;;;;;;;;5033372;28;20197;-67
2022/12/28 06:06:45;;;;;;;6.28;5.65;;;;;;;;;;5033402;28;20202;-67
2022/12/28 06:09:12;;;;;;;7.03;6.30;;;;;;;;;;5033440;28;20200;-66
2022/12/28 06:11:40;;;;;;;6.90;6.30;;;;;;;;;;5036295;28;20336;-66
2022/12/28 06:14:07;;;;;;;7.38;6.07;;;;;;;;;;5037339;28;20221;-66
2022/12/28 06:16:36;;;;;;;7.78;6.90;;;;;;;;;;5037443;28;20209;-66
2022/12/28 06:19:05;;;;;;;9.70;7.22;;;;;;;;;;5036922;28;20202;-66
2022/12/28 06:21:32;;;;;;;7.93;7.10;;;;;;;;;;5036647;28;20250;-66
2022/12/28 06:24:02;;;;;;;8.82;7.15;;;;;;;;;;5036984;28;20230;-66
2022/12/28 06:26:30;;;;;;;8.32;7.43;;;;;;;;;;5036728;28;20686;-66
2022/12/28 06:28:57;;;;;;;8.65;7.00;;;;;;;;;;5036764;28;20202;-66
2022/12/28 06:31:25;;;;;;;9.65;7.30;;;;;;;;;;5036907;28;20202;-66
2022/12/28 06:33:53;;;;;;;8.55;6.95;;;;;;;;;;5036577;28;20195;-66
2022/12/28 06:36:21;;;;;;;10.35;8.13;;;;;;;;;;5037070;28;20195;-66
2022/12/28 06:38:49;;;;;;;8.98;6.50;;;;;;;;;;5036396;28;20199;-66
2022/12/28 06:41:18;;;;;;;8.63;7.47;;;;;;;;;;5036608;28;20258;-66
2022/12/28 06:43:46;;;;;;;9.60;7.85;;;;;;;;;;5036857;28;20202;-66
2022/12/28 06:46:14;;;;;;;7.82;7.10;;;;;;;;;;5036449;28;20657;-67
2022/12/28 06:48:42;;;;;;;12.70;7.55;;;;;;;;;;5036801;28;20290;-66
2022/12/28 06:51:11;;;;;;;9.75;7.88;;;;;;;;;;5036626;28;20195;-66
2022/12/28 06:53:38;;;;;;;8.25;7.20;;;;;;;;;;5036663;28;20195;-66
2022/12/28 06:56:06;;;;;;;8.85;7.95;;;;;;;;;;5036425;28;20198;-67
2022/12/28 06:58:35;;;;;;;11.75;8.65;;;;;;;;;;5036998;28;20194;-66
2022/12/28 07:01:07;;;;;;;9.48;8.32;;;;;;;;;;5036485;28;20219;-66
2022/12/28 07:03:34;;;;;;;11.70;8.40;;;;;;;;;;5054247;28;20660;-66
2022/12/28 07:06:01;;;;;;;9.50;7.75;;;;;;;;;;5056369;28;20538;-66
2022/12/28 07:08:28;;;;;;;8.75;7.85;;;;;;;;;;5056254;28;20195;-66
2022/12/28 07:10:56;;;;;;;9.65;8.40;;;;;;;;;;5056012;28;20675;-66
2022/12/28 07:13:23;;;;;;;9.68;7.80;;;;;;;;;;5056211;28;20667;-66
2022/12/28 07:15:51;;;;;;;11.50;8.45;;;;;;;;;;5055887;28;20656;-66
2022/12/28 07:18:19;;;;;;;9.15;8.25;;;;;;;;;;5056046;28;20201;-66
2022/12/28 07:20:46;;;;;;;10.15;9.05;;;;;;;;;;5055980;28;20222;-66
2022/12/28 07:23:13;;;;;;;10.80;9.70;;;;;;;;;;5055616;28;20248;-66
2022/12/28 07:25:40;;;;;;;10.35;9.35;;;;;;;;;;5055654;28;20663;-66
2022/12/28 07:28:07;;;;;;;10.07;9.07;;;;;;;;;;5055558;28;20201;-66
2022/12/28 07:30:34;;;;;;;12.90;9.82;;;;;;;;;;5055609;28;20214;-65
2022/12/28 07:33:04;;;;;;;12.77;10.00;;;;;;;;;;5055474;28;20679;-66
2022/12/28 07:35:32;;;;;;;13.70;9.65;;;;;;;;;;5055631;28;20210;-67
2022/12/28 07:37:59;;;;;;;13.88;9.95;;;;;;;;;;5055699;28;20298;-66
2022/12/28 07:40:26;;;;;;;12.27;9.82;;;;;;;;;;5055941;28;20221;-66
2022/12/28 07:42:53;;;;;;;12.55;10.05;;;;;;;;;;5055216;28;20206;-67
2022/12/28 07:45:20;;;;;;;10.82;9.63;;;;;;;;;;5055283;28;20207;-69
2022/12/28 07:47:48;;;;;;;11.93;10.40;;;;;;;;;;5055801;28;20281;-67
2022/12/28 07:50:16;;;;;;;15.63;10.85;;;;;;;;;;5050959;28;20230;-67
2022/12/28 07:52:43;;;;;;;10.90;9.52;;;;;;;;;;5035452;28;20656;-67
2022/12/28 07:55:12;;;;;;;13.07;10.02;;;;;;;;;;5035468;28;20288;-67
2022/12/28 07:57:39;;;;;;;11.20;9.63;;;;;;;;;;5035303;28;20217;-67
2022/12/28 08:00:07;;;;;;;10.70;9.60;;;;;;;;;;5035458;28;20194;-68
2022/12/28 08:02:34;;;;;;;10.95;9.85;;;;;;;;;;5034775;28;20696;-67
2022/12/28 08:05:01;;;;;;;13.20;10.00;;;;;;;;;;5034955;28;20201;-67
2022/12/28 08:07:30;;;;;;;13.02;10.38;;;;;;;;;;5034847;28;20195;-67
2022/12/28 08:09:57;;;;;;;15.65;11.25;;;;;;;;;;5035010;28;20274;-67
2022/12/28 08:12:24;;;;;;;13.32;10.40;;;;;;;;;;5034884;28;20199;-67
2022/12/28 08:14:51;;;;;;;11.55;10.45;;;;;;;;;;5035038;28;20620;-67
2022/12/28 08:17:19;;;;;;;13.25;10.73;;;;;;;;;;5035097;28;20195;-67
2022/12/28 08:19:46;;;;;;;12.18;10.98;;;;;;;;;;5034908;28;20293;-67
2022/12/28 08:22:13;;;;;;;13.53;11.60;;;;;;;;;;5034669;28;20223;-67
2022/12/28 08:24:42;;;;;;;14.15;10.40;;;;;;;;;;5034714;28;20450;-68
2022/12/28 08:27:09;;;;;;;14.27;12.10;;;;;;;;;;5034792;28;20268;-67
2022/12/28 08:29:36;;;;;;;14.38;12.88;;;;;;;;;;5034755;28;20249;-67
2022/12/28 08:32:04;;;;;;;14.13;12.00;;;;;;;;;;5034491;28;20600;-67
2022/12/28 08:34:31;;;;;;;14.75;11.90;;;;;;;;;;5033648;28;20191;-67
2022/12/28 08:36:58;;;;;;;17.30;13.10;;;;;;;;;;5034367;28;20202;-67
2022/12/28 08:39:25;;;;;;;13.77;12.27;;;;;;;;;;5034315;28;20302;-67
2022/12/28 08:41:54;;;;;;;16.42;13.05;;;;;;;;;;5034126;28;20216;-67
2022/12/28 08:44:21;;;;;;;14.57;12.98;;;;;;;;;;5033965;28;20199;-67
2022/12/28 08:46:48;;;;;;;16.20;12.27;;;;;;;;;;5034086;28;20199;-67
2022/12/28 08:49:16;;;;;;;14.55;12.40;;;;;;;;;;5034343;28;20192;-67
2022/12/28 08:51:43;;;;;;;12.02;10.73;;;;;;;;;;5034421;28;20199;-66
2022/12/28 08:54:12;;;;;;;16.80;12.57;;;;;;;;;;5034151;28;20209;-67
2022/12/28 08:56:39;;;;;;;12.50;11.23;;;;;;;;;;5033963;28;20199;-66
2022/12/28 08:59:08;;;;;;;12.73;11.45;;;;;;;;;;5034163;28;20199;-66
2022/12/28 09:01:37;;;;;;;14.63;11.90;;;;;;;;;;5033732;28;20225;-66
2022/12/28 09:04:04;;;;;;;15.00;10.70;;;;;;;;;;5033621;28;20479;-67
2022/12/28 09:06:32;;;;;;;12.35;9.95;;;;;;;;;;5033677;28;20196;-67
2022/12/28 09:09:00;;;;;;;12.90;10.45;;;;;;;;;;5034236;28;20202;-67
2022/12/28 09:11:27;;;;;;;12.30;10.48;;;;;;;;;;5034113;28;20645;-67
2022/12/28 09:13:55;;;;;;;12.15;10.95;;;;;;;;;;5033929;28;20203;-67
2022/12/28 09:16:26;;;;;;;10.98;9.77;;;;;;;;;;5033559;28;20290;-67
2022/12/28 09:18:54;;;;;;;12.35;10.70;;;;;;;;;;5033555;28;20183;-67
2022/12/28 09:21:22;;;;;;;13.32;10.55;;;;;;;;;;5033684;28;20302;-67
2022/12/28 09:23:49;;;;;;;14.85;11.77;;;;;;;;;;5033399;28;20195;-67
2022/12/28 09:26:18;;;;;;;12.10;10.80;;;;;;;;;;5033660;28;20708;-67
2022/12/28 09:28:45;;;;;;;12.35;9.32;;;;;;;;;;5033687;28;20294;-66
2022/12/28 09:31:12;;;;;;;12.02;10.90;;;;;;;;;;5033359;28;20207;-66
2022/12/28 09:34:00;;;;;;;11.00;9.90;;;;;;;;;;5033295;28;20306;-67
2022/12/28 09:36:28;;;;;;;11.00;9.93;;;;;;;;;;5033239;28;20482;-67
2022/12/28 09:38:55;;;;;;;11.40;10.30;;;;;;;;;;5033617;28;20200;-66
2022/12/28 09:41:26;;;;;;;10.77;9.60;;;;;;;;;;5033754;28;20314;-66
2022/12/28 09:43:55;;;;;;;10.70;9.63;;;;;;;;;;5032888;28;20187;-66
2022/12/28 09:46:23;;;;;;;10.97;9.97;;;;;;;;;;5033013;28;20199;-67
2022/12/28 09:48:54;;;;;;;15.95;10.80;;;;;;;;;;5033031;28;20446;-67
2022/12/28 09:51:24;;;;;;;11.30;10.20;;;;;;;;;;5033411;28;20209;-67
2022/12/28 09:53:51;;;;;;;11.63;10.52;;;;;;;;;;5033721;28;20221;-67
2022/12/28 09:56:24;;;;;;;12.88;10.98;;;;;;;;;;5033288;28;20196;-67
2022/12/28 09:58:51;;;;;;;15.82;10.50;;;;;;;;;;5033008;28;20188;-67
2022/12/28 10:01:20;;;;;;;11.10;10.10;;;;;;;;;;5032891;28;20225;-66
2022/12/28 10:03:47;;;;;;;12.27;11.07;;;;;;;;;;5032848;28;20533;-67
2022/12/28 10:06:17;;;;;;;11.93;10.82;;;;;;;;;;5033208;28;20447;-67
2022/12/28 10:08:46;;;;;;;12.13;10.93;;;;;;;;;;5032831;28;20206;-67
2022/12/28 10:11:16;;;;;;;11.63;10.53;;;;;;;;;;5033035;28;20223;-67
2022/12/28 10:13:43;;;;;;;14.77;10.73;;;;;;;;;;5033157;28;20441;-68
2022/12/28 10:16:15;;;;;;;11.57;9.93;;;;;;;;;;5033107;28;20452;-67
2022/12/28 10:18:42;;;;;;;11.33;9.03;;;;;;;;;;5033480;28;20441;-67
2022/12/28 10:21:09;;;;;;;10.27;9.30;;;;;;;;;;5032576;28;20438;-67
2022/12/28 10:23:39;;;;;;;10.83;9.20;;;;;;;;;;5032769;28;20203;-67
2022/12/28 10:26:07;;;;;;;10.30;9.38;;;;;;;;;;5033058;28;20442;-68
2022/12/28 10:28:42;;;;;;;8.73;7.93;;;;;;;;;;5033020;28;20638;-67
2022/12/28 10:31:10;;;;;;;11.50;9.48;;;;;;;;;;5033100;28;20222;-67
2022/12/28 10:33:39;;;;;;;14.50;9.93;;;;;;;;;;5032818;28;20648;-67
2022/12/28 10:36:06;;;;;;;14.43;9.85;;;;;;;;;;5032660;28;20538;-67
2022/12/28 10:38:34;;;;;;;11.05;9.75;;;;;;;;;;5032911;28;20527;-67
2022/12/28 10:41:04;;;;;;;10.30;9.37;;;;;;;;;;5032648;28;20196;-67
2022/12/28 10:43:33;;;;;;;10.93;9.63;;;;;;;;;;5032539;28;20492;-67
2022/12/28 10:46:00;;;;;;;11.60;10.33;;;;;;;;;;5032468;28;20449;-67
2022/12/28 10:48:30;;;;;;;11.55;10.07;;;;;;;;;;5032854;28;20453;-67
2022/12/28 10:50:58;;;;;;;10.68;9.68;;;;;;;;;;5032687;28;20195;-67
2022/12/28 10:53:27;;;;;;;10.90;9.80;;;;;;;;;;5032906;28;20196;-67
2022/12/28 10:56:07;;;;;;;11.20;9.80;;;;;;;;;;5032997;28;20450;-67
2022/12/28 10:58:35;;;;;;;11.70;9.33;;;;;;;;;;5036800;28;20434;-67
2022/12/28 11:01:03;;;;;;;13.13;10.10;;;;;;;;;;5036367;28;20469;-69
2022/12/28 11:03:34;;;;;;;12.53;8.27;;;;;;;;;;5036281;28;20536;-68
2022/12/28 11:06:17;;;;;;;11.30;7.97;;;;;;;;;;5036321;28;20513;-68
2022/12/28 11:08:45;;;;;;;13.03;7.73;;;;;;;;;;5036200;28;20275;-68
2022/12/28 11:11:21;;;;;;;10.63;7.10;;;;;;;;;;5036294;28;20482;-66
2022/12/28 11:13:50;;;;;;;10.30;8.20;;;;;;;;;;5035933;28;20904;-68
2022/12/28 11:16:18;;;;;;;8.80;7.97;;;;;;;;;;5036086;28;20294;-68
2022/12/28 11:18:45;;;;;;;8.47;7.57;;;;;;;;;;5035836;28;20657;-67
2022/12/28 11:21:17;;;;;;;10.83;9.80;;;;;;;;;;5036076;28;20521;-67
2022/12/28 11:23:44;;;;;;;10.20;8.63;;;;;;;;;;5036200;28;20430;-67
2022/12/28 11:26:12;;;;;;;8.30;7.50;;;;;;;;;;5035745;28;20444;-68
2022/12/28 11:28:44;;;;;;;7.23;6.60;;;;;;;;;;5036313;28;20448;-67
2022/12/28 11:31:17;;;;;;;7.80;7.10;;;;;;;;;;5036127;28;20858;-67
2022/12/28 11:33:45;;;;;;;7.90;7.00;;;;;;;;;;5036000;28;20776;-67
2022/12/28 11:36:15;;;;;;;6.90;5.90;;;;;;;;;;5035295;28;20449;-68
2022/12/28 11:38:43;;;;;;;8.47;6.23;;;;;;;;;;5035653;28;20457;-67
2022/12/28 11:41:10;;;;;;;6.23;5.70;;;;;;;;;;5035368;28;20443;-67
2022/12/28 11:43:39;;;;;;;7.47;6.17;;;;;;;;;;5035599;28;20504;-67
2022/12/28 11:46:28;;;;;;;6.67;6.07;;;;;;;;;;5035597;28;20439;-67
2022/12/28 11:48:59;;;;;;;7.77;5.70;;;;;;;;;;5035299;28;20442;-67
2022/12/28 11:51:27;;;;;;;5.93;5.43;;;;;;;;;;5034947;28;20456;-67
2022/12/28 11:53:56;;;;;;;6.40;5.37;;;;;;;;;;5035549;28;20444;-67
2022/12/28 11:56:24;;;;;;;8.23;5.97;;;;;;;;;;5034978;28;20857;-67
2022/12/28 11:59:05;;;;;;;6.43;5.93;;;;;;;;;;5035491;28;20528;-69
2022/12/28 12:01:50;;;;;;;8.47;6.30;;;;;;;;;;5035615;28;20430;-66
2022/12/28 12:04:35;;;;;;;6.77;5.80;;;;;;;;;;5035203;28;20915;-66
2022/12/28 12:07:18;;;;;;;6.93;6.20;;;;;;;;;;5034933;28;20427;-66
2022/12/28 12:09:46;;;;;;;10.20;6.53;;;;;;;;;;5034653;28;21013;-66
2022/12/28 12:12:35;;;;;;;6.43;5.93;;;;;;;;;;5035179;28;20533;-66
2022/12/28 12:15:04;;;;;;;7.68;6.88;;;;;;;;;;5034904;28;20423;-66
2022/12/28 12:17:34;;;;;;;8.53;6.77;;;;;;;;;;5035189;28;20195;-66
2022/12/28 12:20:03;;;;;;;7.22;6.45;;;;;;;;;;5035073;28;20539;-66
2022/12/28 12:22:33;;;;;;;10.53;6.90;;;;;;;;;;5034514;28;20314;-66
2022/12/28 12:25:03;;;;;;;7.10;6.50;;;;;;;;;;5034642;28;20538;-66
2022/12/28 12:27:37;;;;;;;8.20;7.40;;;;;;;;;;5034480;28;20943;-66
2022/12/28 12:30:06;;;;;;;7.10;6.50;;;;;;;;;;5035199;28;20437;-66
2022/12/28 12:32:37;;;;;;;9.03;6.77;;;;;;;;;;5034420;28;20986;-66
2022/12/28 12:35:05;;;;;;;8.57;5.97;;;;;;;;;;5035434;28;20506;-66
2022/12/28 12:37:47;;;;;;;7.57;6.85;;;;;;;;;;5034720;28;20798;-66
2022/12/28 12:40:29;;;;;;;6.60;6.00;;;;;;;;;;5034797;28;20195;-66
2022/12/28 12:43:07;;;;;;;6.55;5.90;;;;;;;;;;5032777;28;20990;-67
2022/12/28 12:45:39;;;;;;;8.13;5.30;;;;;;;;;;5034280;28;20184;-66
2022/12/28 12:48:16;;;;;;;6.00;5.50;;;;;;;;;;5034793;28;20434;-66
2022/12/28 12:50:58;;;;;;;8.33;5.70;;;;;;;;;;5034843;28;20426;-66
2022/12/28 12:53:34;;;;;;;8.50;6.00;;;;;;;;;;5033024;28;20600;-66
2022/12/28 12:56:06;;;;;;;8.23;5.50;;;;;;;;;;5034955;28;20278;-67
2022/12/28 12:58:43;;;;;;;5.30;4.90;;;;;;;;;;5034079;28;20430;-66
2022/12/28 13:01:18;;;;;;;7.30;6.60;;;;;;;;;;5035055;28;20184;-67
2022/12/28 13:03:46;;;;;;;5.80;5.20;;;;;;;;;;5033901;28;20461;-67
2022/12/28 13:06:17;;;;;;;5.90;5.30;;;;;;;;;;5034486;28;20803;-66
2022/12/28 13:08:47;;;;;;;5.63;5.13;;;;;;;;;;5034023;28;20812;-67
2022/12/28 13:11:17;;;;;;;6.63;5.20;;;;;;;;;;5033573;28;20318;-67
2022/12/28 13:13:45;;;;;;;4.47;4.17;;;;;;;;;;5034012;28;20436;-69
2022/12/28 13:16:15;;;;;;;5.83;4.77;;;;;;;;;;5034092;28;20810;-67
2022/12/28 13:18:53;;;;;;;5.20;4.73;;;;;;;;;;5033735;28;20441;-67
2022/12/28 13:21:21;;;;;;;5.43;4.40;;;;;;;;;;5032928;28;20802;-68
2022/12/28 13:23:48;;;;;;;5.23;4.20;;;;;;;;;;5033403;28;20995;-67
2022/12/28 13:26:17;;;;;;;4.80;4.27;;;;;;;;;;5033725;28;20799;-68
2022/12/28 13:28:48;;;;;;;5.13;4.20;;;;;;;;;;5033321;28;20438;-70
2022/12/28 13:31:18;;;;;;;8.13;4.27;;;;;;;;;;5033730;28;20431;-67
2022/12/28 13:33:54;;;;;;;4.90;4.40;;;;;;;;;;5033574;28;20537;-67
2022/12/28 13:36:21;;;;;;;10.15;4.40;;;;;;;;;;5033382;28;20434;-67
2022/12/28 13:38:59;;;;;;;4.97;4.53;;;;;;;;;;5033388;28;20206;-67
2022/12/28 13:41:28;;;;;;;7.07;4.43;;;;;;;;;;5033741;28;20426;-67
2022/12/28 13:44:10;;;;;;;5.70;3.90;;;;;;;;;;5033369;28;20827;-68
2022/12/28 13:46:39;;;;;;;6.83;4.80;;;;;;;;;;5033703;28;20430;-69
2022/12/28 13:49:06;;;;;;;7.83;4.10;;;;;;;;;;5033313;28;20447;-67
2022/12/28 13:51:35;;;;;;;4.23;3.83;;;;;;;;;;5033321;28;20439;-67
2022/12/28 13:54:02;;;;;;;5.70;3.70;;;;;;;;;;5033276;28;20446;-68
2022/12/28 13:56:32;;;;;;;8.07;6.20;;;;;;;;;;5033099;28;20529;-67
2022/12/28 13:59:01;;;;;;;9.02;6.13;;;;;;;;;;5033286;28;20410;-68
2022/12/28 14:01:30;;;;;;;5.20;3.78;;;;;;;;;;5033586;28;20209;-67
2022/12/28 14:03:59;;;;;;;3.78;3.35;;;;;;;;;;5033175;28;20546;-68
2022/12/28 14:06:27;;;;;;;5.57;3.00;;;;;;;;;;5033317;28;20204;-67
2022/12/28 14:08:54;;;;;;;4.53;3.30;;;;;;;;;;5032730;28;20946;-68
2022/12/28 14:11:22;;;;;;;4.80;3.47;;;;;;;;;;5033592;28;20470;-68
2022/12/28 14:13:50;;;;;;;4.55;2.90;;;;;;;;;;5032998;28;20446;-67
2022/12/28 14:16:18;;;;;;;5.00;3.00;;;;;;;;;;5033306;28;20192;-67
2022/12/28 14:18:46;;;;;;;6.87;2.70;;;;;;;;;;5033317;28;20192;-68
2022/12/28 14:21:13;;;;;;;3.20;2.60;;;;;;;;;;5032936;28;20533;-68
2022/12/28 14:23:42;;;;;;;6.50;4.20;;;;;;;;;;5033062;28;20485;-68
2022/12/28 14:26:11;;;;;;;4.20;2.83;;;;;;;;;;5033731;28;20795;-68
2022/12/28 14:28:40;;;;;;;4.60;3.00;;;;;;;;;;5033117;28;20449;-66
2022/12/28 14:31:10;;;;;;;3.67;2.70;;;;;;;;;;5033874;28;20477;-66
2022/12/28 14:33:42;;;;;;;6.33;3.40;;;;;;;;;;5036602;28;20954;-66
2022/12/28 14:36:19;;;;;;;4.03;3.00;;;;;;;;;;5037487;28;20456;-66
2022/12/28 14:38:47;;;;;;;3.97;2.70;;;;;;;;;;5036860;28;20516;-66
2022/12/28 14:41:17;;;;;;;3.40;2.90;;;;;;;;;;5037162;28;20200;-66
2022/12/28 14:43:45;;;;;;;6.53;2.63;;;;;;;;;;5036720;28;20568;-66
2022/12/28 14:46:17;;;;;;;5.57;2.90;;;;;;;;;;5036906;28;20844;-66
2022/12/28 14:48:44;;;;;;;2.90;2.63;;;;;;;;;;5036407;28;20230;-66
2022/12/28 14:51:25;;;;;;;4.47;2.80;;;;;;;;;;5036480;28;20446;-67
2022/12/28 14:54:10;;;;;;;6.83;3.40;;;;;;;;;;5036263;28;20668;-67
2022/12/28 14:56:38;;;;;;;4.95;3.25;;;;;;;;;;5036852;28;20516;-67
2022/12/28 14:59:07;;;;;;;3.38;2.55;;;;;;;;;;5036560;28;20201;-67
2022/12/28 15:01:41;;;;;;;3.37;2.40;;;;;;;;;;5036662;28;20206;-66
2022/12/28 15:04:24;;;;;;;10.00;2.50;;;;;;;;;;5036490;28;20466;-67
2022/12/28 15:06:51;;;;;;;3.30;2.53;;;;;;;;;;5036260;28;20432;-67
2022/12/28 15:09:19;;;;;;;2.77;2.20;;;;;;;;;;5036404;28;20540;-67
2022/12/28 15:11:46;;;;;;;4.63;2.80;;;;;;;;;;5036518;28;21001;-67
2022/12/28 15:14:13;;;;;;;5.73;2.60;;;;;;;;;;5036427;28;20567;-67
2022/12/28 15:16:42;;;;;;;3.30;2.80;;;;;;;;;;5036322;28;20434;-67